Zim Vancouver — A8LK5 — position and weather

sailwx.info

Track history (hours):
 
Tides and Currents Weather Stations Pressure Air Temp Water Temp Dewpoint Dewpoint Depression Visibility Wind Speed Wind Dir Waves Ship Positions

Zim Vancouver

Last reported at 2015-Mar-16 06:06 UTC. Time now 2015-Mar-27 05:18 UTC.
Position N 01°49' E 102°31'.
Warning: this ship's position is 10 days out of date.

Length 260 m; draft 11.2 m.

Type: Ship. MMSI: 636013214.

Date/timePositionNaut miles runAvg speedWind from/ knotsBaromVisibWave heightAir tempDewpointWater temp
2015-Mar-16 06:06N 01°49' E 102°31'1017.7
2015-Mar-16 05:33N 01°45' E 102°40'8316.6
2015-Mar-16 00:33N 01°14' E 103°57'  
2015-Mar-12 18:31N 22°06' E 114°21'1713.3
2015-Mar-12 17:14N 22°16' E 114°06'1311.4
2015-Mar-12 16:05N 22°23' E 113°54'4 8.2
2015-Mar-12 15:32N 22°27' E 113°53'5 0.8
2015-Mar-12 09:10N 22°32' E 113°51'0 0.0
2015-Mar-12 07:04N 22°32' E 113°51'0 0.0
2015-Mar-12 05:16N 22°32' E 113°51'0 0.0
2015-Mar-12 03:04N 22°32' E 113°51'4 5.2
2015-Mar-12 02:23N 22°29' E 113°52'910.8
2015-Mar-12 01:33N 22°21' E 113°57'1512.2
2015-Mar-12 00:18N 22°13' E 114°11'8 6.8
2015-Mar-11 23:11N 22°09' E 114°18'1117.6
2015-Mar-11 22:32N 22°09' E 114°30'20418.4
2015-Mar-11 11:24N 23°33' E 117°53'1618.6
2015-Mar-11 10:33N 23°43' E 118°05'8519.1
2015-Mar-11 06:07N 24°37' E 119°17'39116.6
2015-Mar-10 06:33N 30°32' E 122°22'1313.1
2015-Mar-10 05:34N 30°35' E 122°07'3 2.7
2015-Mar-10 04:33N 30°37' E 122°04'0 0.0
2015-Mar-10 03:33N 30°37' E 122°04'0 0.0
2015-Mar-10 02:27N 30°37' E 122°04'0 0.0
2015-Mar-10 01:33N 30°37' E 122°04'0 0.0
2015-Mar-10 00:33N 30°37' E 122°04'0 0.0
2015-Mar-09 23:33N 30°37' E 122°04'0 0.0
2015-Mar-09 22:33N 30°37' E 122°04'0 0.0
2015-Mar-09 21:33N 30°37' E 122°04'0 0.0
2015-Mar-09 20:33N 30°37' E 122°04'0 0.0
2015-Mar-09 19:30N 30°37' E 122°04'0 0.0
2015-Mar-09 18:24N 30°37' E 122°04'0 0.0
2015-Mar-09 17:33N 30°37' E 122°04'0 0.0
2015-Mar-09 16:33N 30°37' E 122°04'0 0.0
2015-Mar-09 15:33N 30°37' E 122°04'6 6.3
2015-Mar-09 14:34N 30°34' E 122°11'7 7.4
2015-Mar-09 13:33N 30°33' E 122°20'45 7.2
2015-Mar-09 07:14N 29°52' E 122°41'710.5
2015-Mar-09 06:33N 29°48' E 122°34'1212.3
2015-Mar-09 05:33N 29°45' E 122°20'1110.9
2015-Mar-09 04:33N 29°53' E 122°11'10 9.7
2015-Mar-09 03:28N 29°56' E 122°00'9 9.6
2015-Mar-09 02:33N 29°57' E 121°50'0 0.3
2015-Mar-09 01:24N 29°57' E 121°50'0 0.0
2015-Mar-09 00:12N 29°57' E 121°50'0 0.0
2015-Mar-08 23:18N 29°57' E 121°50'0 0.0
2015-Mar-08 22:18N 29°57' E 121°50'0 0.0
2015-Mar-08 21:18N 29°57' E 121°50'0 0.0
2015-Mar-08 20:30N 29°57' E 121°50'0 0.0
2015-Mar-08 19:18N 29°57' E 121°50'0 0.0
2015-Mar-08 18:30N 29°57' E 121°50'0 0.0
2015-Mar-08 17:24N 29°57' E 121°50'0 0.0
2015-Mar-08 16:30N 29°57' E 121°50'0 0.0
2015-Mar-08 15:18N 29°57' E 121°50'0 0.0
2015-Mar-08 14:24N 29°57' E 121°50'0 0.0
2015-Mar-08 13:30N 29°57' E 121°50'0 0.0
2015-Mar-08 11:30N 29°57' E 121°50'0 0.1
2015-Mar-08 10:28N 29°57' E 121°50'4 4.9
2015-Mar-08 09:34N 29°58' E 121°55'1211.5
2015-Mar-08 08:31N 29°56' E 122°09'1110.9
2015-Mar-08 07:33N 29°47' E 122°16'9 9.4
2015-Mar-08 06:33N 29°45' E 122°27'1311.4
2015-Mar-08 05:24N 29°47' E 122°42'  
Track history (hours):
 
Tides and Currents Weather Stations Pressure Air Temp Water Temp Dewpoint Dewpoint Depression Visibility Wind Speed Wind Dir Waves Ship Positions

Zim Vancouver

Last reported at 2015-Mar-16 06:06 UTC. Time now 2015-Mar-27 05:18 UTC.
Position N 01°49' E 102°31'.
Warning: this ship's position is 10 days out of date.

Length 260 m; draft 11.2 m.

Type: Ship. MMSI: 636013214.

Date/timePositionNaut miles runAvg speedWind from/ knotsBaromVisibWave heightAir tempDewpointWater temp
2015-Mar-16 06:06N 01°49' E 102°31'1017.7
2015-Mar-16 05:33N 01°45' E 102°40'8316.6
2015-Mar-16 00:33N 01°14' E 103°57'  
2015-Mar-12 18:31N 22°06' E 114°21'1713.3
2015-Mar-12 17:14N 22°16' E 114°06'1311.4
2015-Mar-12 16:05N 22°23' E 113°54'4 8.2
2015-Mar-12 15:32N 22°27' E 113°53'5 0.8
2015-Mar-12 09:10N 22°32' E 113°51'0 0.0
2015-Mar-12 07:04N 22°32' E 113°51'0 0.0
2015-Mar-12 05:16N 22°32' E 113°51'0 0.0
2015-Mar-12 03:04N 22°32' E 113°51'4 5.2
2015-Mar-12 02:23N 22°29' E 113°52'910.8
2015-Mar-12 01:33N 22°21' E 113°57'1512.2
2015-Mar-12 00:18N 22°13' E 114°11'8 6.8
2015-Mar-11 23:11N 22°09' E 114°18'1117.6
2015-Mar-11 22:32N 22°09' E 114°30'20418.4
2015-Mar-11 11:24N 23°33' E 117°53'1618.6
2015-Mar-11 10:33N 23°43' E 118°05'8519.1
2015-Mar-11 06:07N 24°37' E 119°17'39116.6
2015-Mar-10 06:33N 30°32' E 122°22'1313.1
2015-Mar-10 05:34N 30°35' E 122°07'3 2.7
2015-Mar-10 04:33N 30°37' E 122°04'0 0.0
2015-Mar-10 03:33N 30°37' E 122°04'0 0.0
2015-Mar-10 02:27N 30°37' E 122°04'0 0.0
2015-Mar-10 01:33N 30°37' E 122°04'0 0.0
2015-Mar-10 00:33N 30°37' E 122°04'0 0.0
2015-Mar-09 23:33N 30°37' E 122°04'0 0.0
2015-Mar-09 22:33N 30°37' E 122°04'0 0.0
2015-Mar-09 21:33N 30°37' E 122°04'0 0.0
2015-Mar-09 20:33N 30°37' E 122°04'0 0.0
2015-Mar-09 19:30N 30°37' E 122°04'0 0.0
2015-Mar-09 18:24N 30°37' E 122°04'0 0.0
2015-Mar-09 17:33N 30°37' E 122°04'0 0.0
2015-Mar-09 16:33N 30°37' E 122°04'0 0.0
2015-Mar-09 15:33N 30°37' E 122°04'6 6.3
2015-Mar-09 14:34N 30°34' E 122°11'7 7.4
2015-Mar-09 13:33N 30°33' E 122°20'45 7.2
2015-Mar-09 07:14N 29°52' E 122°41'710.5
2015-Mar-09 06:33N 29°48' E 122°34'1212.3
2015-Mar-09 05:33N 29°45' E 122°20'1110.9
2015-Mar-09 04:33N 29°53' E 122°11'10 9.7
2015-Mar-09 03:28N 29°56' E 122°00'9 9.6
2015-Mar-09 02:33N 29°57' E 121°50'0 0.3
2015-Mar-09 01:24N 29°57' E 121°50'0 0.0
2015-Mar-09 00:12N 29°57' E 121°50'0 0.0
2015-Mar-08 23:18N 29°57' E 121°50'0 0.0
2015-Mar-08 22:18N 29°57' E 121°50'0 0.0
2015-Mar-08 21:18N 29°57' E 121°50'0 0.0
2015-Mar-08 20:30N 29°57' E 121°50'0 0.0
2015-Mar-08 19:18N 29°57' E 121°50'0 0.0
2015-Mar-08 18:30N 29°57' E 121°50'0 0.0
2015-Mar-08 17:24N 29°57' E 121°50'0 0.0
2015-Mar-08 16:30N 29°57' E 121°50'0 0.0
2015-Mar-08 15:18N 29°57' E 121°50'0 0.0
2015-Mar-08 14:24N 29°57' E 121°50'0 0.0
2015-Mar-08 13:30N 29°57' E 121°50'0 0.0
2015-Mar-08 11:30N 29°57' E 121°50'0 0.1
2015-Mar-08 10:28N 29°57' E 121°50'4 4.9
2015-Mar-08 09:34N 29°58' E 121°55'1211.5
2015-Mar-08 08:31N 29°56' E 122°09'1110.9
2015-Mar-08 07:33N 29°47' E 122°16'9 9.4
2015-Mar-08 06:33N 29°45' E 122°27'1311.4
2015-Mar-08 05:24N 29°47' E 122°42'  

Dump ship's entire track history